sensor_id;sensor_type;location;lat;lon;timestamp;P1;durP1;ratioP1;P2;durP2;ratioP2
51838;SDS011;37886;53.174;6.368;2022-10-30T00:00:40;44.47;;;20.23;;
51838;SDS011;37886;53.174;6.368;2022-10-30T00:03:08;35.30;;;18.48;;
51838;SDS011;37886;53.174;6.368;2022-10-30T00:05:36;40.80;;;20.63;;
51838;SDS011;37886;53.174;6.368;2022-10-30T00:08:04;47.00;;;20.73;;
51838;SDS011;37886;53.174;6.368;2022-10-30T00:10:29;34.83;;;18.92;;
51838;SDS011;37886;53.174;6.368;2022-10-30T00:12:55;41.45;;;20.17;;
51838;SDS011;37886;53.174;6.368;2022-10-30T00:15:22;38.45;;;19.02;;
51838;SDS011;37886;53.174;6.368;2022-10-30T00:17:47;40.97;;;18.92;;
51838;SDS011;37886;53.174;6.368;2022-10-30T00:20:13;39.80;;;19.55;;
51838;SDS011;37886;53.174;6.368;2022-10-30T00:22:38;40.60;;;20.83;;
51838;SDS011;37886;53.174;6.368;2022-10-30T00:25:04;40.33;;;18.65;;
51838;SDS011;37886;53.174;6.368;2022-10-30T00:27:30;38.50;;;19.35;;
51838;SDS011;37886;53.174;6.368;2022-10-30T00:29:56;38.92;;;19.30;;
51838;SDS011;37886;53.174;6.368;2022-10-30T00:32:21;41.35;;;20.17;;
51838;SDS011;37886;53.174;6.368;2022-10-30T00:34:47;36.17;;;20.35;;
51838;SDS011;37886;53.174;6.368;2022-10-30T00:37:13;37.30;;;19.23;;
51838;SDS011;37886;53.174;6.368;2022-10-30T00:39:38;40.80;;;19.85;;
51838;SDS011;37886;53.174;6.368;2022-10-30T00:42:04;41.08;;;19.55;;
51838;SDS011;37886;53.174;6.368;2022-10-30T00:44:31;34.10;;;19.85;;
51838;SDS011;37886;53.174;6.368;2022-10-30T00:47:04;30.05;;;19.00;;
51838;SDS011;37886;53.174;6.368;2022-10-30T00:55:41;40.30;;;19.73;;
51838;SDS011;37886;53.174;6.368;2022-10-30T00:58:10;34.25;;;18.73;;
51838;SDS011;37886;53.174;6.368;2022-10-30T01:03:07;39.15;;;19.73;;
51838;SDS011;37886;53.174;6.368;2022-10-30T01:05:33;35.15;;;18.80;;
51838;SDS011;37886;53.174;6.368;2022-10-30T01:08:00;37.33;;;19.13;;
51838;SDS011;37886;53.174;6.368;2022-10-30T01:10:25;32.55;;;18.42;;
51838;SDS011;37886;53.174;6.368;2022-10-30T01:12:51;39.15;;;19.27;;
51838;SDS011;37886;53.174;6.368;2022-10-30T01:15:20;40.85;;;19.77;;
51838;SDS011;37886;53.174;6.368;2022-10-30T01:26:06;35.67;;;19.73;;
51838;SDS011;37886;53.174;6.368;2022-10-30T01:34:17;32.35;;;17.10;;
51838;SDS011;37886;53.174;6.368;2022-10-30T01:39:16;38.78;;;17.88;;
51838;SDS011;37886;53.174;6.368;2022-10-30T01:41:48;43.03;;;19.00;;
51838;SDS011;37886;53.174;6.368;2022-10-30T01:44:19;35.13;;;19.30;;
51838;SDS011;37886;53.174;6.368;2022-10-30T01:46:53;38.65;;;20.25;;
51838;SDS011;37886;53.174;6.368;2022-10-30T01:58:00;42.67;;;20.17;;
51838;SDS011;37886;53.174;6.368;2022-10-30T02:00:26;37.40;;;20.80;;
51838;SDS011;37886;53.174;6.368;2022-10-30T02:02:53;39.75;;;19.15;;
51838;SDS011;37886;53.174;6.368;2022-10-30T02:05:20;36.78;;;18.63;;
51838;SDS011;37886;53.174;6.368;2022-10-30T02:07:56;35.30;;;18.77;;
51838;SDS011;37886;53.174;6.368;2022-10-30T02:10:22;37.53;;;18.30;;
51838;SDS011;37886;53.174;6.368;2022-10-30T02:12:48;42.60;;;19.73;;
51838;SDS011;37886;53.174;6.368;2022-10-30T02:15:14;38.80;;;18.80;;
51838;SDS011;37886;53.174;6.368;2022-10-30T02:17:40;35.15;;;18.20;;
51838;SDS011;37886;53.174;6.368;2022-10-30T02:20:06;32.45;;;18.20;;
51838;SDS011;37886;53.174;6.368;2022-10-30T02:22:38;34.30;;;17.80;;
51838;SDS011;37886;53.174;6.368;2022-10-30T02:25:04;33.45;;;18.20;;
51838;SDS011;37886;53.174;6.368;2022-10-30T02:27:30;33.58;;;18.95;;
51838;SDS011;37886;53.174;6.368;2022-10-30T02:29:55;39.72;;;20.25;;
51838;SDS011;37886;53.174;6.368;2022-10-30T02:32:21;40.30;;;19.05;;
51838;SDS011;37886;53.174;6.368;2022-10-30T02:34:47;37.22;;;20.02;;
51838;SDS011;37886;53.174;6.368;2022-10-30T02:37:12;34.08;;;18.05;;
51838;SDS011;37886;53.174;6.368;2022-10-30T02:39:38;36.15;;;18.50;;
51838;SDS011;37886;53.174;6.368;2022-10-30T02:42:04;41.83;;;19.05;;
51838;SDS011;37886;53.174;6.368;2022-10-30T02:44:29;30.85;;;17.90;;
51838;SDS011;37886;53.174;6.368;2022-10-30T02:46:55;38.83;;;19.67;;
51838;SDS011;37886;53.174;6.368;2022-10-30T02:49:21;44.45;;;18.67;;
51838;SDS011;37886;53.174;6.368;2022-10-30T02:51:46;32.97;;;18.90;;
51838;SDS011;37886;53.174;6.368;2022-10-30T02:54:12;40.47;;;18.75;;
51838;SDS011;37886;53.174;6.368;2022-10-30T02:56:41;42.72;;;19.02;;
51838;SDS011;37886;53.174;6.368;2022-10-30T02:59:07;41.13;;;20.20;;
51838;SDS011;37886;53.174;6.368;2022-10-30T03:01:32;39.22;;;19.67;;
51838;SDS011;37886;53.174;6.368;2022-10-30T03:03:58;38.22;;;19.40;;
51838;SDS011;37886;53.174;6.368;2022-10-30T03:06:24;41.65;;;19.45;;
51838;SDS011;37886;53.174;6.368;2022-10-30T03:08:50;38.63;;;19.83;;
51838;SDS011;37886;53.174;6.368;2022-10-30T03:11:16;33.97;;;19.13;;
51838;SDS011;37886;53.174;6.368;2022-10-30T03:13:44;43.22;;;20.35;;
51838;SDS011;37886;53.174;6.368;2022-10-30T03:16:11;36.13;;;18.63;;
51838;SDS011;37886;53.174;6.368;2022-10-30T03:18:42;40.15;;;19.90;;
51838;SDS011;37886;53.174;6.368;2022-10-30T03:21:09;39.20;;;19.58;;
51838;SDS011;37886;53.174;6.368;2022-10-30T03:23:36;41.63;;;20.55;;
51838;SDS011;37886;53.174;6.368;2022-10-30T03:26:02;41.03;;;18.80;;
51838;SDS011;37886;53.174;6.368;2022-10-30T03:28:29;39.35;;;19.90;;
51838;SDS011;37886;53.174;6.368;2022-10-30T03:31:05;38.03;;;20.25;;
51838;SDS011;37886;53.174;6.368;2022-10-30T03:33:33;38.33;;;18.70;;
51838;SDS011;37886;53.174;6.368;2022-10-30T03:35:59;37.55;;;20.27;;
51838;SDS011;37886;53.174;6.368;2022-10-30T03:38:25;37.85;;;20.55;;
51838;SDS011;37886;53.174;6.368;2022-10-30T03:40:51;41.42;;;19.77;;
51838;SDS011;37886;53.174;6.368;2022-10-30T03:43:17;37.55;;;20.30;;
51838;SDS011;37886;53.174;6.368;2022-10-30T03:45:47;40.10;;;19.33;;
51838;SDS011;37886;53.174;6.368;2022-10-30T03:48:18;39.75;;;19.10;;
51838;SDS011;37886;53.174;6.368;2022-10-30T03:50:44;35.80;;;19.85;;
51838;SDS011;37886;53.174;6.368;2022-10-30T03:53:11;41.90;;;18.50;;
51838;SDS011;37886;53.174;6.368;2022-10-30T03:55:37;37.55;;;19.15;;
51838;SDS011;37886;53.174;6.368;2022-10-30T03:58:02;37.58;;;19.05;;
51838;SDS011;37886;53.174;6.368;2022-10-30T04:00:28;39.03;;;19.67;;
51838;SDS011;37886;53.174;6.368;2022-10-30T04:02:54;39.80;;;18.38;;
51838;SDS011;37886;53.174;6.368;2022-10-30T04:05:21;40.38;;;18.52;;
51838;SDS011;37886;53.174;6.368;2022-10-30T04:07:47;39.20;;;18.75;;
51838;SDS011;37886;53.174;6.368;2022-10-30T04:10:19;40.30;;;20.35;;
51838;SDS011;37886;53.174;6.368;2022-10-30T04:12:46;36.42;;;18.98;;
51838;SDS011;37886;53.174;6.368;2022-10-30T04:15:12;39.30;;;19.88;;
51838;SDS011;37886;53.174;6.368;2022-10-30T04:17:38;43.13;;;22.30;;
51838;SDS011;37886;53.174;6.368;2022-10-30T04:20:03;41.72;;;21.13;;
51838;SDS011;37886;53.174;6.368;2022-10-30T04:22:30;37.28;;;21.42;;
51838;SDS011;37886;53.174;6.368;2022-10-30T04:24:55;39.53;;;21.85;;
51838;SDS011;37886;53.174;6.368;2022-10-30T04:27:21;41.58;;;20.65;;
51838;SDS011;37886;53.174;6.368;2022-10-30T04:29:47;44.88;;;20.95;;
51838;SDS011;37886;53.174;6.368;2022-10-30T04:32:12;42.03;;;19.80;;
51838;SDS011;37886;53.174;6.368;2022-10-30T04:34:38;45.65;;;20.63;;
51838;SDS011;37886;53.174;6.368;2022-10-30T04:37:05;38.08;;;21.27;;
51838;SDS011;37886;53.174;6.368;2022-10-30T04:39:31;43.22;;;21.30;;
51838;SDS011;37886;53.174;6.368;2022-10-30T04:41:56;43.60;;;21.20;;
51838;SDS011;37886;53.174;6.368;2022-10-30T04:44:23;40.85;;;21.55;;
51838;SDS011;37886;53.174;6.368;2022-10-30T04:46:48;37.33;;;19.15;;
51838;SDS011;37886;53.174;6.368;2022-10-30T04:49:14;39.22;;;22.17;;
51838;SDS011;37886;53.174;6.368;2022-10-30T04:51:40;40.42;;;22.52;;
51838;SDS011;37886;53.174;6.368;2022-10-30T04:54:05;45.03;;;22.65;;
51838;SDS011;37886;53.174;6.368;2022-10-30T04:56:31;45.28;;;20.95;;
51838;SDS011;37886;53.174;6.368;2022-10-30T04:58:57;49.55;;;23.00;;
51838;SDS011;37886;53.174;6.368;2022-10-30T05:01:23;47.38;;;24.08;;
51838;SDS011;37886;53.174;6.368;2022-10-30T05:03:51;52.08;;;23.17;;
51838;SDS011;37886;53.174;6.368;2022-10-30T05:06:21;45.47;;;22.27;;
51838;SDS011;37886;53.174;6.368;2022-10-30T05:08:49;46.10;;;22.23;;
51838;SDS011;37886;53.174;6.368;2022-10-30T05:11:14;47.45;;;23.20;;
51838;SDS011;37886;53.174;6.368;2022-10-30T05:13:41;44.67;;;24.40;;
51838;SDS011;37886;53.174;6.368;2022-10-30T05:16:07;46.30;;;23.20;;
51838;SDS011;37886;53.174;6.368;2022-10-30T05:18:32;46.30;;;22.88;;
51838;SDS011;37886;53.174;6.368;2022-10-30T05:20:58;44.63;;;22.40;;
51838;SDS011;37886;53.174;6.368;2022-10-30T05:23:26;49.35;;;23.83;;
51838;SDS011;37886;53.174;6.368;2022-10-30T05:25:52;46.58;;;24.60;;
51838;SDS011;37886;53.174;6.368;2022-10-30T05:28:18;46.92;;;23.77;;
51838;SDS011;37886;53.174;6.368;2022-10-30T05:30:43;51.35;;;25.42;;
51838;SDS011;37886;53.174;6.368;2022-10-30T05:33:10;48.70;;;24.13;;
51838;SDS011;37886;53.174;6.368;2022-10-30T05:35:36;44.40;;;23.42;;
51838;SDS011;37886;53.174;6.368;2022-10-30T05:38:05;43.58;;;23.38;;
51838;SDS011;37886;53.174;6.368;2022-10-30T05:40:32;43.35;;;24.17;;
51838;SDS011;37886;53.174;6.368;2022-10-30T05:42:58;43.55;;;22.85;;
51838;SDS011;37886;53.174;6.368;2022-10-30T05:45:24;48.83;;;24.73;;
51838;SDS011;37886;53.174;6.368;2022-10-30T05:47:57;50.78;;;24.45;;
51838;SDS011;37886;53.174;6.368;2022-10-30T05:50:28;48.70;;;24.60;;
51838;SDS011;37886;53.174;6.368;2022-10-30T05:53:11;54.00;;;26.00;;
51838;SDS011;37886;53.174;6.368;2022-10-30T05:55:37;50.72;;;25.30;;
51838;SDS011;37886;53.174;6.368;2022-10-30T05:58:03;53.70;;;25.90;;
51838;SDS011;37886;53.174;6.368;2022-10-30T06:00:32;53.00;;;26.08;;
51838;SDS011;37886;53.174;6.368;2022-10-30T06:02:59;52.75;;;25.23;;
51838;SDS011;37886;53.174;6.368;2022-10-30T06:05:26;50.45;;;25.13;;
51838;SDS011;37886;53.174;6.368;2022-10-30T06:07:54;54.25;;;25.27;;
51838;SDS011;37886;53.174;6.368;2022-10-30T06:10:21;44.63;;;22.65;;
51838;SDS011;37886;53.174;6.368;2022-10-30T06:12:59;59.35;;;26.15;;
51838;SDS011;37886;53.174;6.368;2022-10-30T06:15:27;47.53;;;27.02;;
51838;SDS011;37886;53.174;6.368;2022-10-30T06:17:54;51.83;;;25.35;;
51838;SDS011;37886;53.174;6.368;2022-10-30T06:20:21;54.15;;;26.95;;
51838;SDS011;37886;53.174;6.368;2022-10-30T06:22:58;52.17;;;26.73;;
51838;SDS011;37886;53.174;6.368;2022-10-30T06:25:26;56.15;;;25.38;;
51838;SDS011;37886;53.174;6.368;2022-10-30T06:27:52;57.78;;;27.65;;
51838;SDS011;37886;53.174;6.368;2022-10-30T06:30:18;52.75;;;25.92;;
51838;SDS011;37886;53.174;6.368;2022-10-30T06:32:44;57.33;;;28.85;;
51838;SDS011;37886;53.174;6.368;2022-10-30T06:35:10;59.00;;;28.85;;
51838;SDS011;37886;53.174;6.368;2022-10-30T06:37:36;54.72;;;25.75;;
51838;SDS011;37886;53.174;6.368;2022-10-30T06:40:05;60.28;;;28.13;;
51838;SDS011;37886;53.174;6.368;2022-10-30T06:42:31;58.88;;;25.70;;
51838;SDS011;37886;53.174;6.368;2022-10-30T06:44:57;48.35;;;25.17;;
51838;SDS011;37886;53.174;6.368;2022-10-30T06:47:23;50.60;;;25.80;;
51838;SDS011;37886;53.174;6.368;2022-10-30T06:49:48;52.47;;;28.00;;
51838;SDS011;37886;53.174;6.368;2022-10-30T06:52:14;55.17;;;24.75;;
51838;SDS011;37886;53.174;6.368;2022-10-30T06:54:40;47.72;;;25.42;;
51838;SDS011;37886;53.174;6.368;2022-10-30T06:57:05;55.97;;;25.42;;
51838;SDS011;37886;53.174;6.368;2022-10-30T06:59:31;55.92;;;25.60;;
51838;SDS011;37886;53.174;6.368;2022-10-30T07:01:56;63.55;;;27.88;;
51838;SDS011;37886;53.174;6.368;2022-10-30T07:04:22;50.78;;;25.70;;
51838;SDS011;37886;53.174;6.368;2022-10-30T07:06:48;58.70;;;27.45;;
51838;SDS011;37886;53.174;6.368;2022-10-30T07:09:13;56.08;;;25.73;;
51838;SDS011;37886;53.174;6.368;2022-10-30T07:11:39;51.10;;;26.63;;
51838;SDS011;37886;53.174;6.368;2022-10-30T07:14:09;53.40;;;27.05;;
51838;SDS011;37886;53.174;6.368;2022-10-30T07:16:36;50.30;;;25.73;;
51838;SDS011;37886;53.174;6.368;2022-10-30T07:19:02;51.10;;;25.50;;
51838;SDS011;37886;53.174;6.368;2022-10-30T07:21:27;49.38;;;27.52;;
51838;SDS011;37886;53.174;6.368;2022-10-30T07:23:53;42.72;;;24.98;;
51838;SDS011;37886;53.174;6.368;2022-10-30T07:26:19;46.78;;;25.75;;
51838;SDS011;37886;53.174;6.368;2022-10-30T07:28:45;47.35;;;24.48;;
51838;SDS011;37886;53.174;6.368;2022-10-30T07:31:10;49.53;;;24.83;;
51838;SDS011;37886;53.174;6.368;2022-10-30T07:33:36;42.55;;;24.05;;
51838;SDS011;37886;53.174;6.368;2022-10-30T07:36:02;60.22;;;26.45;;
51838;SDS011;37886;53.174;6.368;2022-10-30T07:38:28;53.97;;;26.42;;
51838;SDS011;37886;53.174;6.368;2022-10-30T07:40:53;47.65;;;25.27;;
51838;SDS011;37886;53.174;6.368;2022-10-30T07:43:19;48.72;;;23.73;;
51838;SDS011;37886;53.174;6.368;2022-10-30T07:45:45;47.58;;;25.08;;
51838;SDS011;37886;53.174;6.368;2022-10-30T07:48:11;48.60;;;24.73;;
51838;SDS011;37886;53.174;6.368;2022-10-30T07:50:37;51.38;;;25.65;;
51838;SDS011;37886;53.174;6.368;2022-10-30T07:53:02;47.85;;;25.38;;
51838;SDS011;37886;53.174;6.368;2022-10-30T07:55:28;51.15;;;24.73;;
51838;SDS011;37886;53.174;6.368;2022-10-30T07:57:54;49.47;;;25.30;;
51838;SDS011;37886;53.174;6.368;2022-10-30T08:00:19;42.65;;;24.02;;
51838;SDS011;37886;53.174;6.368;2022-10-30T08:02:48;45.13;;;23.70;;
51838;SDS011;37886;53.174;6.368;2022-10-30T08:05:15;45.83;;;23.85;;
51838;SDS011;37886;53.174;6.368;2022-10-30T08:07:41;43.15;;;22.73;;
51838;SDS011;37886;53.174;6.368;2022-10-30T08:10:10;46.20;;;22.70;;
51838;SDS011;37886;53.174;6.368;2022-10-30T08:12:35;45.63;;;22.02;;
51838;SDS011;37886;53.174;6.368;2022-10-30T08:15:03;46.85;;;23.80;;
51838;SDS011;37886;53.174;6.368;2022-10-30T08:17:29;38.78;;;24.88;;
51838;SDS011;37886;53.174;6.368;2022-10-30T08:19:55;39.53;;;22.77;;
51838;SDS011;37886;53.174;6.368;2022-10-30T08:22:21;47.13;;;23.38;;
51838;SDS011;37886;53.174;6.368;2022-10-30T08:24:47;40.40;;;20.85;;
51838;SDS011;37886;53.174;6.368;2022-10-30T08:27:12;35.40;;;19.55;;
51838;SDS011;37886;53.174;6.368;2022-10-30T08:29:38;38.88;;;24.20;;
51838;SDS011;37886;53.174;6.368;2022-10-30T08:32:04;35.60;;;21.27;;
51838;SDS011;37886;53.174;6.368;2022-10-30T08:34:30;44.42;;;19.63;;
51838;SDS011;37886;53.174;6.368;2022-10-30T08:36:56;41.70;;;21.65;;
51838;SDS011;37886;53.174;6.368;2022-10-30T08:39:22;35.78;;;21.08;;
51838;SDS011;37886;53.174;6.368;2022-10-30T08:41:47;42.25;;;20.35;;
51838;SDS011;37886;53.174;6.368;2022-10-30T08:44:13;45.42;;;22.67;;
51838;SDS011;37886;53.174;6.368;2022-10-30T08:46:39;38.10;;;20.52;;
51838;SDS011;37886;53.174;6.368;2022-10-30T08:49:04;35.95;;;19.45;;
51838;SDS011;37886;53.174;6.368;2022-10-30T08:51:31;46.70;;;21.05;;
51838;SDS011;37886;53.174;6.368;2022-10-30T08:53:57;39.33;;;19.55;;
51838;SDS011;37886;53.174;6.368;2022-10-30T08:56:23;34.55;;;20.25;;
51838;SDS011;37886;53.174;6.368;2022-10-30T08:58:52;33.70;;;19.55;;
51838;SDS011;37886;53.174;6.368;2022-10-30T09:01:18;48.28;;;23.95;;
51838;SDS011;37886;53.174;6.368;2022-10-30T09:03:44;43.17;;;20.10;;
51838;SDS011;37886;53.174;6.368;2022-10-30T09:06:10;34.63;;;18.33;;
51838;SDS011;37886;53.174;6.368;2022-10-30T09:08:36;35.90;;;18.45;;
51838;SDS011;37886;53.174;6.368;2022-10-30T09:11:02;36.45;;;19.25;;
51838;SDS011;37886;53.174;6.368;2022-10-30T09:13:28;43.97;;;21.15;;
51838;SDS011;37886;53.174;6.368;2022-10-30T09:15:58;37.45;;;18.10;;
51838;SDS011;37886;53.174;6.368;2022-10-30T09:18:27;36.05;;;18.40;;
51838;SDS011;37886;53.174;6.368;2022-10-30T09:20:52;33.30;;;17.60;;
51838;SDS011;37886;53.174;6.368;2022-10-30T09:23:18;29.88;;;18.38;;
51838;SDS011;37886;53.174;6.368;2022-10-30T09:25:44;38.67;;;20.27;;
51838;SDS011;37886;53.174;6.368;2022-10-30T09:28:10;35.78;;;16.73;;
51838;SDS011;37886;53.174;6.368;2022-10-30T09:30:35;32.72;;;18.67;;
51838;SDS011;37886;53.174;6.368;2022-10-30T09:33:01;35.92;;;19.20;;
51838;SDS011;37886;53.174;6.368;2022-10-30T09:35:27;33.50;;;16.95;;
51838;SDS011;37886;53.174;6.368;2022-10-30T09:37:53;39.95;;;17.20;;
51838;SDS011;37886;53.174;6.368;2022-10-30T09:40:21;40.70;;;20.40;;
51838;SDS011;37886;53.174;6.368;2022-10-30T09:43:08;34.15;;;17.90;;
51838;SDS011;37886;53.174;6.368;2022-10-30T09:45:47;32.22;;;17.00;;
51838;SDS011;37886;53.174;6.368;2022-10-30T09:54:03;30.05;;;16.73;;
51838;SDS011;37886;53.174;6.368;2022-10-30T09:56:31;41.80;;;19.85;;
51838;SDS011;37886;53.174;6.368;2022-10-30T10:02:00;34.38;;;17.10;;
51838;SDS011;37886;53.174;6.368;2022-10-30T10:04:42;29.70;;;18.35;;
51838;SDS011;37886;53.174;6.368;2022-10-30T10:09:46;38.92;;;18.63;;
51838;SDS011;37886;53.174;6.368;2022-10-30T10:12:38;37.22;;;18.80;;
51838;SDS011;37886;53.174;6.368;2022-10-30T10:15:08;46.25;;;19.50;;
51838;SDS011;37886;53.174;6.368;2022-10-30T10:17:45;35.25;;;16.58;;
51838;SDS011;37886;53.174;6.368;2022-10-30T10:23:03;31.17;;;17.10;;
51838;SDS011;37886;53.174;6.368;2022-10-30T10:25:51;34.80;;;16.15;;
51838;SDS011;37886;53.174;6.368;2022-10-30T10:36:37;34.13;;;16.75;;
51838;SDS011;37886;53.174;6.368;2022-10-30T10:50:20;28.15;;;15.55;;
51838;SDS011;37886;53.174;6.368;2022-10-30T10:55:57;27.33;;;14.98;;
51838;SDS011;37886;53.174;6.368;2022-10-30T11:00:56;27.73;;;13.82;;
51838;SDS011;37886;53.174;6.368;2022-10-30T11:03:39;32.28;;;14.63;;
51838;SDS011;37886;53.174;6.368;2022-10-30T11:09:18;31.55;;;15.98;;
51838;SDS011;37886;53.174;6.368;2022-10-30T11:11:45;28.77;;;14.90;;
51838;SDS011;37886;53.174;6.368;2022-10-30T11:14:33;27.08;;;12.63;;
51838;SDS011;37886;53.174;6.368;2022-10-30T11:17:09;24.45;;;14.13;;
51838;SDS011;37886;53.174;6.368;2022-10-30T11:19:50;31.48;;;14.98;;
51838;SDS011;37886;53.174;6.368;2022-10-30T11:22:29;32.67;;;15.50;;
51838;SDS011;37886;53.174;6.368;2022-10-30T11:27:46;26.65;;;13.73;;
51838;SDS011;37886;53.174;6.368;2022-10-30T11:30:18;32.78;;;14.77;;
51838;SDS011;37886;53.174;6.368;2022-10-30T11:32:45;28.75;;;13.65;;
51838;SDS011;37886;53.174;6.368;2022-10-30T11:35:14;26.95;;;11.80;;
51838;SDS011;37886;53.174;6.368;2022-10-30T11:37:42;25.58;;;12.35;;
51838;SDS011;37886;53.174;6.368;2022-10-30T11:42:45;28.25;;;12.20;;
51838;SDS011;37886;53.174;6.368;2022-10-30T11:47:49;31.98;;;13.25;;
51838;SDS011;37886;53.174;6.368;2022-10-30T11:50:21;27.60;;;12.65;;
51838;SDS011;37886;53.174;6.368;2022-10-30T11:52:52;28.80;;;12.80;;
51838;SDS011;37886;53.174;6.368;2022-10-30T12:03:45;23.63;;;10.82;;
51838;SDS011;37886;53.174;6.368;2022-10-30T12:09:03;24.42;;;10.30;;
51838;SDS011;37886;53.174;6.368;2022-10-30T12:11:32;24.30;;;10.82;;
51838;SDS011;37886;53.174;6.368;2022-10-30T12:13:59;23.67;;;9.13;;
51838;SDS011;37886;53.174;6.368;2022-10-30T12:16:25;21.52;;;9.10;;
51838;SDS011;37886;53.174;6.368;2022-10-30T12:18:56;22.52;;;8.93;;
51838;SDS011;37886;53.174;6.368;2022-10-30T12:21:24;23.05;;;9.75;;
51838;SDS011;37886;53.174;6.368;2022-10-30T12:23:53;24.83;;;9.55;;
51838;SDS011;37886;53.174;6.368;2022-10-30T12:26:21;16.90;;;9.85;;
51838;SDS011;37886;53.174;6.368;2022-10-30T12:29:01;28.75;;;11.02;;
51838;SDS011;37886;53.174;6.368;2022-10-30T12:31:37;26.48;;;10.77;;
51838;SDS011;37886;53.174;6.368;2022-10-30T12:39:52;17.02;;;9.20;;
51838;SDS011;37886;53.174;6.368;2022-10-30T12:42:20;20.25;;;9.05;;
51838;SDS011;37886;53.174;6.368;2022-10-30T12:47:39;27.60;;;10.52;;
51838;SDS011;37886;53.174;6.368;2022-10-30T12:50:18;22.83;;;8.73;;
51838;SDS011;37886;53.174;6.368;2022-10-30T12:53:05;18.60;;;8.30;;
51838;SDS011;37886;53.174;6.368;2022-10-30T12:55:53;23.17;;;7.82;;
51838;SDS011;37886;53.174;6.368;2022-10-30T13:06:25;23.33;;;9.35;;
51838;SDS011;37886;53.174;6.368;2022-10-30T13:09:08;21.55;;;8.57;;
51838;SDS011;37886;53.174;6.368;2022-10-30T13:11:51;20.35;;;7.95;;
51838;SDS011;37886;53.174;6.368;2022-10-30T13:14:44;19.52;;;8.38;;
51838;SDS011;37886;53.174;6.368;2022-10-30T13:17:19;22.48;;;7.82;;
51838;SDS011;37886;53.174;6.368;2022-10-30T13:19:45;20.20;;;8.85;;
51838;SDS011;37886;53.174;6.368;2022-10-30T13:25:24;20.67;;;8.93;;
51838;SDS011;37886;53.174;6.368;2022-10-30T13:27:52;25.20;;;8.50;;
51838;SDS011;37886;53.174;6.368;2022-10-30T13:30:26;20.63;;;8.55;;
51838;SDS011;37886;53.174;6.368;2022-10-30T13:35:58;18.58;;;8.75;;
51838;SDS011;37886;53.174;6.368;2022-10-30T13:43:57;22.90;;;8.65;;
51838;SDS011;37886;53.174;6.368;2022-10-30T13:49:07;23.80;;;9.40;;
51838;SDS011;37886;53.174;6.368;2022-10-30T13:51:46;19.75;;;9.40;;
51838;SDS011;37886;53.174;6.368;2022-10-30T13:54:24;21.90;;;8.50;;
51838;SDS011;37886;53.174;6.368;2022-10-30T13:56:56;20.50;;;8.88;;
51838;SDS011;37886;53.174;6.368;2022-10-30T14:02:33;19.48;;;9.02;;
51838;SDS011;37886;53.174;6.368;2022-10-30T14:05:14;16.75;;;8.73;;
51838;SDS011;37886;53.174;6.368;2022-10-30T14:15:52;21.15;;;8.18;;
51838;SDS011;37886;53.174;6.368;2022-10-30T14:18:30;20.13;;;8.23;;
51838;SDS011;37886;53.174;6.368;2022-10-30T14:20:57;25.48;;;9.18;;
51838;SDS011;37886;53.174;6.368;2022-10-30T14:23:43;23.63;;;8.65;;
51838;SDS011;37886;53.174;6.368;2022-10-30T14:28:37;22.55;;;8.95;;
51838;SDS011;37886;53.174;6.368;2022-10-30T14:31:05;22.38;;;9.32;;
51838;SDS011;37886;53.174;6.368;2022-10-30T14:33:52;20.25;;;9.40;;
51838;SDS011;37886;53.174;6.368;2022-10-30T14:41:54;24.23;;;9.27;;
51838;SDS011;37886;53.174;6.368;2022-10-30T14:44:45;23.92;;;11.05;;
51838;SDS011;37886;53.174;6.368;2022-10-30T14:53:17;19.80;;;9.35;;
51838;SDS011;37886;53.174;6.368;2022-10-30T14:58:35;19.50;;;10.27;;
51838;SDS011;37886;53.174;6.368;2022-10-30T15:03:51;24.27;;;11.05;;
51838;SDS011;37886;53.174;6.368;2022-10-30T15:06:22;21.13;;;10.60;;
51838;SDS011;37886;53.174;6.368;2022-10-30T15:09:09;22.13;;;11.07;;
51838;SDS011;37886;53.174;6.368;2022-10-30T15:14:35;22.75;;;11.07;;
51838;SDS011;37886;53.174;6.368;2022-10-30T15:17:10;21.10;;;10.65;;
51838;SDS011;37886;53.174;6.368;2022-10-30T15:19:43;25.33;;;11.18;;
51838;SDS011;37886;53.174;6.368;2022-10-30T15:22:10;27.00;;;13.70;;
51838;SDS011;37886;53.174;6.368;2022-10-30T15:24:43;16.38;;;9.45;;
51838;SDS011;37886;53.174;6.368;2022-10-30T15:27:10;19.98;;;11.68;;
51838;SDS011;37886;53.174;6.368;2022-10-30T15:29:45;22.83;;;11.60;;
51838;SDS011;37886;53.174;6.368;2022-10-30T15:32:19;23.73;;;11.88;;
51838;SDS011;37886;53.174;6.368;2022-10-30T15:34:53;22.15;;;10.90;;
51838;SDS011;37886;53.174;6.368;2022-10-30T15:37:27;25.70;;;11.60;;
51838;SDS011;37886;53.174;6.368;2022-10-30T15:42:34;19.90;;;11.52;;
51838;SDS011;37886;53.174;6.368;2022-10-30T15:45:02;20.92;;;10.90;;
51838;SDS011;37886;53.174;6.368;2022-10-30T15:47:28;24.63;;;11.45;;
51838;SDS011;37886;53.174;6.368;2022-10-30T15:49:54;24.05;;;12.20;;
51838;SDS011;37886;53.174;6.368;2022-10-30T15:52:25;20.20;;;10.85;;
51838;SDS011;37886;53.174;6.368;2022-10-30T15:54:53;25.25;;;11.65;;
51838;SDS011;37886;53.174;6.368;2022-10-30T15:57:28;27.35;;;10.90;;
51838;SDS011;37886;53.174;6.368;2022-10-30T16:00:04;25.58;;;10.98;;
51838;SDS011;37886;53.174;6.368;2022-10-30T16:02:45;19.98;;;11.80;;
51838;SDS011;37886;53.174;6.368;2022-10-30T16:05:32;23.77;;;11.27;;
51838;SDS011;37886;53.174;6.368;2022-10-30T16:07:59;30.38;;;13.77;;
51838;SDS011;37886;53.174;6.368;2022-10-30T16:10:28;22.15;;;13.15;;
51838;SDS011;37886;53.174;6.368;2022-10-30T16:12:59;26.60;;;14.32;;
51838;SDS011;37886;53.174;6.368;2022-10-30T16:15:30;32.47;;;14.95;;
51838;SDS011;37886;53.174;6.368;2022-10-30T16:20:51;31.85;;;16.13;;
51838;SDS011;37886;53.174;6.368;2022-10-30T16:23:19;33.88;;;16.00;;
51838;SDS011;37886;53.174;6.368;2022-10-30T16:25:45;26.05;;;16.48;;
51838;SDS011;37886;53.174;6.368;2022-10-30T16:28:22;29.25;;;14.00;;
51838;SDS011;37886;53.174;6.368;2022-10-30T16:30:48;25.38;;;13.48;;
51838;SDS011;37886;53.174;6.368;2022-10-30T16:33:14;34.72;;;14.77;;
51838;SDS011;37886;53.174;6.368;2022-10-30T16:35:46;30.40;;;15.18;;
51838;SDS011;37886;53.174;6.368;2022-10-30T16:38:15;28.02;;;14.23;;
51838;SDS011;37886;53.174;6.368;2022-10-30T16:40:42;28.48;;;15.90;;
51838;SDS011;37886;53.174;6.368;2022-10-30T16:43:24;34.00;;;15.27;;
51838;SDS011;37886;53.174;6.368;2022-10-30T16:45:52;30.30;;;14.63;;
51838;SDS011;37886;53.174;6.368;2022-10-30T16:48:27;33.15;;;17.23;;
51838;SDS011;37886;53.174;6.368;2022-10-30T16:50:57;30.52;;;17.70;;
51838;SDS011;37886;53.174;6.368;2022-10-30T16:53:25;29.38;;;16.80;;
51838;SDS011;37886;53.174;6.368;2022-10-30T16:55:52;33.42;;;17.35;;
51838;SDS011;37886;53.174;6.368;2022-10-30T16:58:19;38.92;;;18.95;;
51838;SDS011;37886;53.174;6.368;2022-10-30T17:00:52;35.97;;;17.25;;
51838;SDS011;37886;53.174;6.368;2022-10-30T17:03:20;33.95;;;17.92;;
51838;SDS011;37886;53.174;6.368;2022-10-30T17:06:00;31.70;;;20.60;;
51838;SDS011;37886;53.174;6.368;2022-10-30T17:11:14;37.53;;;17.95;;
51838;SDS011;37886;53.174;6.368;2022-10-30T17:16:21;34.22;;;18.15;;
51838;SDS011;37886;53.174;6.368;2022-10-30T17:18:47;36.50;;;19.42;;
51838;SDS011;37886;53.174;6.368;2022-10-30T17:21:17;38.53;;;19.58;;
51838;SDS011;37886;53.174;6.368;2022-10-30T17:23:56;34.38;;;18.65;;